Time;durP1;ratioP1;P1;durP2;ratioP2;P2;SDS_P1;SDS_P2;PMS_P1;PMS_P2;Temp;Humidity;BMP_temperature;BMP_pressure;BME280_temperature;BME280_humidity;BME280_pressure;Samples;Min_cycle;Max_cycle;Signal;HPM_P1;HPM_P2
2022/10/24 00:01:19;;;;;;;;;2.00;2.00;;;;;;;;5059675;28;45313;-71
2022/10/24 00:03:44;;;;;;;;;5.00;1.50;;;;;;;;5059820;28;45361;-72
2022/10/24 00:06:10;;;;;;;;;1.75;1.75;;;;;;;;5059380;28;45455;-72
2022/10/24 00:08:35;;;;;;;;;1.75;1.50;;;;;;;;5059288;28;45419;-72
2022/10/24 00:11:01;;;;;;;;;2.75;1.75;;;;;;;;5059469;28;45452;-70
2022/10/24 00:13:26;;;;;;;;;1.50;1.00;;;;;;;;5059924;28;45318;-71
2022/10/24 00:15:51;;;;;;;;;1.00;1.00;;;;;;;;5058818;28;46338;-71
2022/10/24 00:18:17;;;;;;;;;1.25;1.00;;;;;;;;5059204;28;45294;-72
2022/10/24 00:20:42;;;;;;;;;2.00;0.00;;;;;;;;5058147;28;45517;-70
2022/10/24 00:23:08;;;;;;;;;6.00;1.00;;;;;;;;5059553;28;45164;-70
2022/10/24 00:25:33;;;;;;;;;2.00;2.00;;;;;;;;5059241;28;45328;-74
2022/10/24 00:27:58;;;;;;;;;3.50;1.50;;;;;;;;5059037;28;45273;-75
2022/10/24 00:30:23;;;;;;;;;0.75;0.50;;;;;;;;5059395;28;45199;-73
2022/10/24 00:32:49;;;;;;;;;1.00;1.00;;;;;;;;5059303;28;45518;-73
2022/10/24 00:35:15;;;;;;;;;1.00;0.00;;;;;;;;5059075;28;46238;-74
2022/10/24 00:37:40;;;;;;;;;3.50;1.00;;;;;;;;5060883;28;45416;-75
2022/10/24 00:40:05;;;;;;;;;3.50;1.00;;;;;;;;5068752;28;45428;-74
2022/10/24 00:42:31;;;;;;;;;1.75;1.00;;;;;;;;5060657;28;45222;-75
2022/10/24 00:44:56;;;;;;;;;1.75;0.00;;;;;;;;5058723;28;46274;-73
2022/10/24 00:47:23;;;;;;;;;2.00;1.00;;;;;;;;5058697;28;45337;-75
2022/10/24 00:49:49;;;;;;;;;0.00;0.00;;;;;;;;5059050;28;45267;-74
2022/10/24 00:52:16;;;;;;;;;3.25;0.00;;;;;;;;5059024;28;45579;-74
2022/10/24 00:54:42;;;;;;;;;0.00;0.00;;;;;;;;5058729;28;45714;-75
2022/10/24 00:57:12;;;;;;;;;0.00;0.00;;;;;;;;5058559;28;45531;-74
2022/10/24 00:59:40;;;;;;;;;0.00;0.00;;;;;;;;5058934;28;45533;-74
2022/10/24 01:02:05;;;;;;;;;0.00;0.00;;;;;;;;5059096;28;45459;-75
2022/10/24 01:04:30;;;;;;;;;0.50;0.00;;;;;;;;5058547;28;46541;-75
2022/10/24 01:07:04;;;;;;;;;0.25;0.00;;;;;;;;5058771;28;45339;-75
2022/10/24 01:09:48;;;;;;;;;0.25;0.00;;;;;;;;5058907;28;45404;-75
2022/10/24 01:12:19;;;;;;;;;3.00;0.00;;;;;;;;5058759;28;45487;-74
2022/10/24 01:14:59;;;;;;;;;1.00;0.50;;;;;;;;5058249;28;45317;-75
2022/10/24 01:17:37;;;;;;;;;0.00;0.00;;;;;;;;5058195;28;45308;-74
2022/10/24 01:20:20;;;;;;;;;0.00;0.00;;;;;;;;5058794;28;45266;-74
2022/10/24 01:22:51;;;;;;;;;2.50;0.00;;;;;;;;5058738;28;45348;-73
2022/10/24 01:25:20;;;;;;;;;0.25;0.00;;;;;;;;5058230;28;45291;-71
2022/10/24 01:28:04;;;;;;;;;1.00;0.00;;;;;;;;5058306;28;45443;-70
2022/10/24 01:30:32;;;;;;;;;0.00;0.00;;;;;;;;5058399;28;45381;-70
2022/10/24 01:33:04;;;;;;;;;0.25;0.00;;;;;;;;5058456;28;45523;-75
2022/10/24 01:35:39;;;;;;;;;0.25;0.00;;;;;;;;5057930;28;45367;-78
2022/10/24 01:38:23;;;;;;;;;0.00;0.00;;;;;;;;5057917;28;45282;-80
2022/10/24 01:40:51;;;;;;;;;0.00;0.00;;;;;;;;5058513;28;45412;-79
2022/10/24 01:43:19;;;;;;;;;0.00;0.00;;;;;;;;5058594;28;45377;-76
2022/10/24 01:45:48;;;;;;;;;1.00;0.00;;;;;;;;5057889;28;46635;-79
2022/10/24 01:48:15;;;;;;;;;1.00;0.00;;;;;;;;5057751;28;45262;-83
2022/10/24 01:50:42;;;;;;;;;0.00;0.00;;;;;;;;5058251;28;45800;-81
2022/10/24 01:53:07;;;;;;;;;2.00;0.00;;;;;;;;5058389;28;45294;-80
2022/10/24 01:55:33;;;;;;;;;0.25;0.00;;;;;;;;5057834;28;45590;-79
2022/10/24 01:57:58;;;;;;;;;1.00;0.00;;;;;;;;5057143;28;45345;-78
2022/10/24 02:00:24;;;;;;;;;1.00;0.00;;;;;;;;5057814;28;45270;-81
2022/10/24 02:02:54;;;;;;;;;0.25;0.25;;;;;;;;5058152;28;45421;-79
2022/10/24 02:05:21;;;;;;;;;0.50;0.00;;;;;;;;5057690;28;46532;-70
2022/10/24 02:07:49;;;;;;;;;5.75;0.50;;;;;;;;5057614;28;45476;-73
2022/10/24 02:10:20;;;;;;;;;0.00;0.00;;;;;;;;5057810;28;45291;-74
2022/10/24 02:12:48;;;;;;;;;2.00;1.25;;;;;;;;5057516;28;45388;-74
2022/10/24 02:15:17;;;;;;;;;0.00;0.00;;;;;;;;5057061;28;46311;-74
2022/10/24 02:17:43;;;;;;;;;0.00;0.00;;;;;;;;5056118;28;45385;-74
2022/10/24 02:20:08;;;;;;;;;0.00;0.00;;;;;;;;5057642;28;45341;-73
2022/10/24 02:22:43;;;;;;;;;0.00;0.00;;;;;;;;5057745;28;45364;-73
2022/10/24 02:25:10;;;;;;;;;0.00;0.00;;;;;;;;5057496;28;46348;-74
2022/10/24 02:27:41;;;;;;;;;2.00;1.00;;;;;;;;5057513;28;45800;-74
2022/10/24 02:30:09;;;;;;;;;2.00;2.00;;;;;;;;5057532;28;45306;-74
2022/10/24 02:32:37;;;;;;;;;1.00;0.00;;;;;;;;5057455;28;45500;-74
2022/10/24 02:35:04;;;;;;;;;0.00;0.00;;;;;;;;5057080;28;46159;-74
2022/10/24 02:37:30;;;;;;;;;0.00;0.00;;;;;;;;5057210;28;45756;-75
2022/10/24 02:39:56;;;;;;;;;0.25;0.00;;;;;;;;5057491;28;45540;-72
2022/10/24 02:42:23;;;;;;;;;2.00;0.00;;;;;;;;5057351;28;45471;-74
2022/10/24 02:44:48;;;;;;;;;0.00;0.00;;;;;;;;5057071;28;46458;-75
2022/10/24 02:47:14;;;;;;;;;0.00;0.00;;;;;;;;5057015;28;45499;-75
2022/10/24 02:49:39;;;;;;;;;2.00;0.25;;;;;;;;5057481;28;45291;-70
2022/10/24 02:52:05;;;;;;;;;0.00;0.00;;;;;;;;5057320;28;45370;-72
2022/10/24 02:54:30;;;;;;;;;1.00;0.00;;;;;;;;5056822;28;45538;-73
2022/10/24 02:56:58;;;;;;;;;3.00;0.00;;;;;;;;5057143;28;45370;-75
2022/10/24 02:59:23;;;;;;;;;0.25;0.00;;;;;;;;5057041;28;45218;-74
2022/10/24 03:01:49;;;;;;;;;0.00;0.00;;;;;;;;5057390;28;45456;-74
2022/10/24 03:04:14;;;;;;;;;0.75;0.00;;;;;;;;5056722;28;45906;-75
2022/10/24 03:06:39;;;;;;;;;3.00;1.00;;;;;;;;5056970;28;45218;-75
2022/10/24 03:09:04;;;;;;;;;2.00;0.75;;;;;;;;5058621;28;45700;-74
2022/10/24 03:11:30;;;;;;;;;1.25;0.00;;;;;;;;5060762;28;45290;-74
2022/10/24 03:13:55;;;;;;;;;2.00;0.00;;;;;;;;5059805;28;46507;-73
2022/10/24 03:16:20;;;;;;;;;2.00;0.25;;;;;;;;5060225;28;45162;-74
2022/10/24 03:18:45;;;;;;;;;1.75;0.00;;;;;;;;5060314;28;45357;-74
2022/10/24 03:21:10;;;;;;;;;1.00;0.00;;;;;;;;5060728;28;45328;-73
2022/10/24 03:23:36;;;;;;;;;1.50;0.00;;;;;;;;5059799;28;46414;-73
2022/10/24 03:26:01;;;;;;;;;4.75;1.00;;;;;;;;5060538;28;45228;-74
2022/10/24 03:28:26;;;;;;;;;1.00;0.00;;;;;;;;5060471;28;45384;-73
2022/10/24 03:30:52;;;;;;;;;0.00;0.00;;;;;;;;5060550;28;45517;-74
2022/10/24 03:33:17;;;;;;;;;0.00;0.00;;;;;;;;5059999;28;46548;-76
2022/10/24 03:35:42;;;;;;;;;3.00;0.00;;;;;;;;5060082;28;45430;-76
2022/10/24 03:38:08;;;;;;;;;0.00;0.00;;;;;;;;5060392;28;45355;-77
2022/10/24 03:40:34;;;;;;;;;0.00;0.00;;;;;;;;5060391;28;45422;-75
2022/10/24 03:42:59;;;;;;;;;2.00;0.00;;;;;;;;5059961;28;46516;-75
2022/10/24 03:45:24;;;;;;;;;0.00;0.00;;;;;;;;5059909;28;45431;-75
2022/10/24 03:47:49;;;;;;;;;0.50;0.00;;;;;;;;5059843;28;45253;-76
2022/10/24 03:50:15;;;;;;;;;1.00;0.00;;;;;;;;5060202;28;45396;-73
2022/10/24 03:52:40;;;;;;;;;0.00;0.00;;;;;;;;5059652;28;45549;-75
2022/10/24 03:55:05;;;;;;;;;9.25;5.25;;;;;;;;5059837;28;45353;-74
2022/10/24 03:57:30;;;;;;;;;0.25;0.00;;;;;;;;5059801;28;45333;-74
2022/10/24 03:59:56;;;;;;;;;4.00;0.50;;;;;;;;5059952;28;45305;-74
2022/10/24 04:02:21;;;;;;;;;1.00;0.00;;;;;;;;5059592;28;45444;-74
2022/10/24 04:04:46;;;;;;;;;1.75;0.50;;;;;;;;5059405;28;45321;-74
2022/10/24 04:07:11;;;;;;;;;2.00;1.00;;;;;;;;5059848;28;45385;-74
2022/10/24 04:09:37;;;;;;;;;0.00;0.00;;;;;;;;5059900;28;45399;-73
2022/10/24 04:12:02;;;;;;;;;2.50;0.00;;;;;;;;5059392;28;46898;-73
2022/10/24 04:14:27;;;;;;;;;4.25;0.00;;;;;;;;5059147;28;45415;-74
2022/10/24 04:16:52;;;;;;;;;1.50;0.00;;;;;;;;5059414;28;45382;-74
2022/10/24 04:19:18;;;;;;;;;0.00;0.00;;;;;;;;5059761;28;45380;-73
2022/10/24 04:21:43;;;;;;;;;1.75;0.00;;;;;;;;5058668;28;45499;-73
2022/10/24 04:24:09;;;;;;;;;1.25;0.00;;;;;;;;5059006;28;45266;-74
2022/10/24 04:26:34;;;;;;;;;1.75;0.00;;;;;;;;5059573;28;45340;-73
2022/10/24 04:28:59;;;;;;;;;1.00;1.00;;;;;;;;5059545;28;45315;-74
2022/10/24 04:31:24;;;;;;;;;4.50;2.00;;;;;;;;5059202;28;45349;-73
2022/10/24 04:33:50;;;;;;;;;0.75;0.00;;;;;;;;5058920;28;45288;-74
2022/10/24 04:36:15;;;;;;;;;2.00;1.00;;;;;;;;5059138;28;45307;-74
2022/10/24 04:38:40;;;;;;;;;1.00;1.00;;;;;;;;5059588;28;45199;-74
2022/10/24 04:41:05;;;;;;;;;0.00;0.00;;;;;;;;5059063;28;45440;-74
2022/10/24 04:43:31;;;;;;;;;1.00;1.00;;;;;;;;5058957;28;45216;-73
2022/10/24 04:45:56;;;;;;;;;4.00;0.00;;;;;;;;5059164;28;45251;-74
2022/10/24 04:48:21;;;;;;;;;0.25;0.00;;;;;;;;5059213;28;45221;-77
2022/10/24 04:50:47;;;;;;;;;0.00;0.00;;;;;;;;5059088;28;46490;-79
2022/10/24 04:53:12;;;;;;;;;0.00;0.00;;;;;;;;5058842;28;45194;-78
2022/10/24 04:55:38;;;;;;;;;0.00;0.00;;;;;;;;5059153;28;45206;-76
2022/10/24 04:58:03;;;;;;;;;2.00;0.00;;;;;;;;5059065;28;45560;-75
2022/10/24 05:00:29;;;;;;;;;0.00;0.00;;;;;;;;5040559;28;46364;-76
2022/10/24 05:02:54;;;;;;;;;0.00;0.00;;;;;;;;5058764;28;45452;-77
2022/10/24 05:05:19;;;;;;;;;0.00;0.00;;;;;;;;5040399;28;45475;-78
2022/10/24 05:07:45;;;;;;;;;0.00;0.00;;;;;;;;5059210;28;45436;-76
2022/10/24 05:10:11;;;;;;;;;1.00;0.75;;;;;;;;5058442;28;46452;-76
2022/10/24 05:12:36;;;;;;;;;0.00;0.00;;;;;;;;5058634;28;45447;-73
2022/10/24 05:15:01;;;;;;;;;0.50;0.00;;;;;;;;5058444;28;45277;-77
2022/10/24 05:17:27;;;;;;;;;3.00;0.00;;;;;;;;5058646;28;45286;-77
2022/10/24 05:19:52;;;;;;;;;2.00;0.25;;;;;;;;5058472;28;46554;-75
2022/10/24 05:22:17;;;;;;;;;0.00;0.00;;;;;;;;5058526;28;45317;-76
2022/10/24 05:24:42;;;;;;;;;1.75;0.00;;;;;;;;5058826;28;45293;-77
2022/10/24 05:27:07;;;;;;;;;1.50;0.00;;;;;;;;5058832;28;45451;-77
2022/10/24 05:29:33;;;;;;;;;0.75;0.75;;;;;;;;5058729;28;46430;-79
2022/10/24 05:31:58;;;;;;;;;0.00;0.00;;;;;;;;5057316;28;45281;-79
2022/10/24 05:34:24;;;;;;;;;0.00;0.00;;;;;;;;5058447;28;45211;-78
2022/10/24 05:36:50;;;;;;;;;3.50;0.25;;;;;;;;5058657;28;45318;-81
2022/10/24 05:39:15;;;;;;;;;3.50;1.00;;;;;;;;5058213;28;46769;-79
2022/10/24 05:41:40;;;;;;;;;1.25;0.75;;;;;;;;5058019;28;45174;-80
2022/10/24 05:44:06;;;;;;;;;4.00;2.50;;;;;;;;5058664;28;45229;-80
2022/10/24 05:46:31;;;;;;;;;3.25;0.00;;;;;;;;5058665;28;45323;-79
2022/10/24 05:48:56;;;;;;;;;1.75;0.25;;;;;;;;5058289;28;46273;-78
2022/10/24 05:51:21;;;;;;;;;2.25;0.00;;;;;;;;5058108;28;45246;-77
2022/10/24 05:53:46;;;;;;;;;2.25;0.00;;;;;;;;5058095;28;45387;-78
2022/10/24 05:56:12;;;;;;;;;0.50;0.50;;;;;;;;5058385;28;45425;-77
2022/10/24 05:58:37;;;;;;;;;2.25;0.00;;;;;;;;5057896;28;45460;-76
2022/10/24 06:01:02;;;;;;;;;2.25;0.50;;;;;;;;5057700;28;45444;-76
2022/10/24 06:03:27;;;;;;;;;2.25;0.00;;;;;;;;5057637;28;45356;-78
2022/10/24 06:05:53;;;;;;;;;0.75;0.00;;;;;;;;5057417;28;45267;-76
2022/10/24 06:08:18;;;;;;;;;0.50;0.50;;;;;;;;5057557;28;45401;-73
2022/10/24 06:10:47;;;;;;;;;1.75;0.00;;;;;;;;5057597;28;45352;-74
2022/10/24 06:13:12;;;;;;;;;1.00;0.00;;;;;;;;5057839;28;45286;-70
2022/10/24 06:15:39;;;;;;;;;10.67;10.33;;;;;;;;5057609;28;45238;-79
2022/10/24 06:18:04;;;;;;;;;1.75;0.00;;;;;;;;5057494;28;46563;-72
2022/10/24 06:20:30;;;;;;;;;1.00;0.00;;;;;;;;5057250;28;45408;-71
2022/10/24 06:22:55;;;;;;;;;2.00;1.00;;;;;;;;5057303;28;45217;-72
2022/10/24 06:25:21;;;;;;;;;2.00;0.00;;;;;;;;5058113;28;45325;-70
2022/10/24 06:27:47;;;;;;;;;1.00;0.00;;;;;;;;5057354;28;47593;-72
2022/10/24 06:30:12;;;;;;;;;0.00;0.00;;;;;;;;5057322;28;45202;-73
2022/10/24 06:32:38;;;;;;;;;2.50;2.50;;;;;;;;5057491;28;45293;-68
2022/10/24 06:35:03;;;;;;;;;0.25;0.00;;;;;;;;5057248;28;45370;-69
2022/10/24 06:37:29;;;;;;;;;20.67;20.67;;;;;;;;5056774;28;46176;-72
2022/10/24 06:39:54;;;;;;;;;1.00;0.00;;;;;;;;5057045;28;45317;-65
2022/10/24 06:42:19;;;;;;;;;0.00;0.00;;;;;;;;5057055;28;45404;-64
2022/10/24 06:44:44;;;;;;;;;1.75;1.00;;;;;;;;5060089;28;45405;-65
2022/10/24 06:47:10;;;;;;;;;0.00;0.00;;;;;;;;5060684;28;45704;-78
2022/10/24 06:49:35;;;;;;;;;3.25;0.75;;;;;;;;5060479;28;45483;-74
2022/10/24 06:52:00;;;;;;;;;0.00;0.00;;;;;;;;5060530;28;45299;-69
2022/10/24 06:54:25;;;;;;;;;0.00;0.00;;;;;;;;5061003;28;45333;-66
2022/10/24 06:56:50;;;;;;;;;1.00;1.00;;;;;;;;5060531;28;45614;-69
2022/10/24 06:59:17;;;;;;;;;6.25;1.00;;;;;;;;5060468;28;46302;-71
2022/10/24 07:01:43;;;;;;;;;0.75;0.75;;;;;;;;5060529;28;45271;-74
2022/10/24 07:04:08;;;;;;;;;0.00;0.00;;;;;;;;5060734;28;45306;-73
2022/10/24 07:06:33;;;;;;;;;0.25;0.00;;;;;;;;5060595;28;45358;-73
2022/10/24 07:08:59;;;;;;;;;1.00;1.00;;;;;;;;5060384;28;45276;-68
2022/10/24 07:11:25;;;;;;;;;0.00;0.00;;;;;;;;5060375;28;45224;-67
2022/10/24 07:13:50;;;;;;;;;4.00;1.00;;;;;;;;5060485;28;45285;-71
2022/10/24 07:16:16;;;;;;;;;1.00;0.00;;;;;;;;5059563;28;45397;-67
2022/10/24 07:18:41;;;;;;;;;4.75;1.25;;;;;;;;5060352;28;45361;-70
2022/10/24 07:21:08;;;;;;;;;0.00;0.00;;;;;;;;5059867;28;45285;-75
2022/10/24 07:23:33;;;;;;;;;0.75;0.75;;;;;;;;5060728;28;45267;-71
2022/10/24 07:26:06;;;;;;;;;0.50;0.00;;;;;;;;5059907;28;47197;-70
2022/10/24 07:28:32;;;;;;;;;4.50;3.50;;;;;;;;5059981;28;45151;-70
2022/10/24 07:30:58;;;;;;;;;3.25;0.50;;;;;;;;5059962;28;45431;-72
2022/10/24 07:33:23;;;;;;;;;4.00;1.00;;;;;;;;5059751;28;45341;-69
2022/10/24 07:35:48;;;;;;;;;1.75;1.50;;;;;;;;5059506;28;45404;-71
2022/10/24 07:38:13;;;;;;;;;1.00;1.00;;;;;;;;5041830;28;45895;-69
2022/10/24 07:40:38;;;;;;;;;5.50;1.75;;;;;;;;5059891;28;45423;-71
2022/10/24 07:43:04;;;;;;;;;1.25;0.25;;;;;;;;5059919;28;45360;-71
2022/10/24 07:45:31;;;;;;;;;0.75;0.75;;;;;;;;5059245;28;46538;-69
2022/10/24 07:47:57;;;;;;;;;1.00;1.00;;;;;;;;5059738;28;45462;-69
2022/10/24 07:50:22;;;;;;;;;1.00;1.00;;;;;;;;5059897;28;45384;-69
2022/10/24 07:52:47;;;;;;;;;1.00;1.00;;;;;;;;5059652;28;45441;-73
2022/10/24 07:55:12;;;;;;;;;2.75;0.75;;;;;;;;5058553;28;46281;-69
2022/10/24 07:57:37;;;;;;;;;2.50;0.75;;;;;;;;5059721;28;45279;-70
2022/10/24 08:00:03;;;;;;;;;2.50;1.00;;;;;;;;5059308;28;45361;-69
2022/10/24 08:02:29;;;;;;;;;0.75;0.75;;;;;;;;5060073;28;45310;-69
2022/10/24 08:04:54;;;;;;;;;1.00;1.00;;;;;;;;5059074;28;46370;-70
2022/10/24 08:07:19;;;;;;;;;0.00;0.00;;;;;;;;5059580;28;45328;-70
2022/10/24 08:09:46;;;;;;;;;2.00;0.00;;;;;;;;5059464;28;45251;-70
2022/10/24 08:12:11;;;;;;;;;1.50;0.00;;;;;;;;5062441;28;45298;-71
2022/10/24 08:14:38;;;;;;;;;1.00;1.00;;;;;;;;5079490;28;45717;-73
2022/10/24 08:17:03;;;;;;;;;1.25;0.00;;;;;;;;5079689;28;45249;-72
2022/10/24 08:19:29;;;;;;;;;3.00;1.00;;;;;;;;5079388;28;45446;-71
2022/10/24 08:21:54;;;;;;;;;0.00;0.00;;;;;;;;5079545;28;45366;-65
2022/10/24 08:24:19;;;;;;;;;1.00;0.00;;;;;;;;5076984;28;46574;-68
2022/10/24 08:26:44;;;;;;;;;2.50;0.00;;;;;;;;5078990;28;45316;-71
2022/10/24 08:29:10;;;;;;;;;1.00;0.00;;;;;;;;5079405;28;45414;-66
2022/10/24 08:31:37;;;;;;;;;1.50;0.50;;;;;;;;5078498;28;45422;-68
2022/10/24 08:34:04;;;;;;;;;2.00;0.50;;;;;;;;5079280;27;46608;-66
2022/10/24 08:36:31;;;;;;;;;1.75;0.00;;;;;;;;5078558;28;45479;-65
2022/10/24 08:38:56;;;;;;;;;3.25;1.00;;;;;;;;5079108;28;45291;-65
2022/10/24 08:41:21;;;;;;;;;0.00;0.00;;;;;;;;5079108;28;45532;-66
2022/10/24 08:43:47;;;;;;;;;3.50;2.00;;;;;;;;5078542;28;45568;-66
2022/10/24 08:46:22;;;;;;;;;5.00;1.00;;;;;;;;5079220;28;45259;-66
2022/10/24 08:48:55;;;;;;;;;1.75;0.50;;;;;;;;5078984;28;45545;-64
2022/10/24 08:51:39;;;;;;;;;1.50;1.00;;;;;;;;5078733;28;45559;-63
2022/10/24 08:54:08;;;;;;;;;0.50;0.00;;;;;;;;5078632;28;45689;-66
2022/10/24 08:56:33;;;;;;;;;3.75;1.00;;;;;;;;5078953;28;45569;-64
2022/10/24 08:59:00;;;;;;;;;0.00;0.00;;;;;;;;5078752;28;45446;-64
2022/10/24 09:01:26;;;;;;;;;3.00;0.00;;;;;;;;5078757;27;45337;-65
2022/10/24 09:03:51;;;;;;;;;2.50;1.00;;;;;;;;5077888;28;45393;-65
2022/10/24 09:06:21;;;;;;;;;0.00;0.00;;;;;;;;5078217;28;45493;-66
2022/10/24 09:08:54;;;;;;;;;0.00;0.00;;;;;;;;5078798;28;45275;-66
2022/10/24 09:11:30;;;;;;;;;3.00;0.00;;;;;;;;5078759;28;45210;-65
2022/10/24 09:13:56;;;;;;;;;2.00;1.00;;;;;;;;5077966;28;46355;-64
2022/10/24 09:16:22;;;;;;;;;2.25;0.00;;;;;;;;5078500;28;45445;-65
2022/10/24 09:18:50;;;;;;;;;5.50;0.25;;;;;;;;5078753;28;45292;-68
2022/10/24 09:21:16;;;;;;;;;0.75;0.75;;;;;;;;5076921;28;45448;-72
2022/10/24 09:23:41;;;;;;;;;0.00;0.00;;;;;;;;5076729;28;45569;-70
2022/10/24 09:26:12;;;;;;;;;0.25;0.00;;;;;;;;5077520;28;45243;-70
2022/10/24 09:28:38;;;;;;;;;3.00;0.00;;;;;;;;5078466;28;45337;-70
2022/10/24 09:31:17;;;;;;;;;1.50;0.00;;;;;;;;5078163;28;45296;-69
2022/10/24 09:33:43;;;;;;;;;2.00;1.00;;;;;;;;5077763;28;45642;-70
2022/10/24 09:36:10;;;;;;;;;0.75;0.75;;;;;;;;5077037;28;46476;-70
2022/10/24 09:38:36;;;;;;;;;2.50;0.00;;;;;;;;5078087;28;45274;-68
2022/10/24 09:41:24;;;;;;;;;0.75;0.75;;;;;;;;5078438;27;45371;-68
2022/10/24 09:43:53;;;;;;;;;0.25;0.00;;;;;;;;4998708;28;45779;-66
2022/10/24 09:46:27;;;;;;;;;4.50;0.00;;;;;;;;5015048;28;45793;-70
2022/10/24 09:48:55;;;;;;;;;0.25;0.00;;;;;;;;5015364;28;45531;-74
2022/10/24 09:51:23;;;;;;;;;1.25;1.00;;;;;;;;5000749;28;45578;-65
2022/10/24 09:54:06;;;;;;;;;0.50;0.50;;;;;;;;4994722;28;46404;-75
2022/10/24 09:56:37;;;;;;;;;3.00;0.00;;;;;;;;4995836;28;45412;-67
2022/10/24 09:59:25;;;;;;;;;0.00;0.00;;;;;;;;4998320;28;45841;-67
2022/10/24 10:01:51;;;;;;;;;1.00;0.00;;;;;;;;4988443;28;45482;-69
2022/10/24 10:04:17;;;;;;;;;0.00;0.00;;;;;;;;4991525;28;45488;-66
2022/10/24 10:06:44;;;;;;;;;0.00;0.00;;;;;;;;4985358;28;45666;-67
2022/10/24 10:09:14;;;;;;;;;0.00;0.00;;;;;;;;4993876;28;45597;-65
2022/10/24 10:11:39;;;;;;;;;3.00;0.00;;;;;;;;4986640;28;45440;-68
2022/10/24 10:14:15;;;;;;;;;2.00;0.75;;;;;;;;4981721;28;45540;-65
2022/10/24 10:16:40;;;;;;;;;1.00;0.00;;;;;;;;4975475;28;45446;-72
2022/10/24 10:19:16;;;;;;;;;0.25;0.25;;;;;;;;4974751;28;45428;-67
2022/10/24 10:21:51;;;;;;;;;0.25;0.25;;;;;;;;5045145;28;45431;-72
2022/10/24 10:24:37;;;;;;;;;1.75;0.25;;;;;;;;5062360;28;46451;-68
2022/10/24 10:27:22;;;;;;;;;0.00;0.00;;;;;;;;5068696;28;45491;-69
2022/10/24 10:29:47;;;;;;;;;0.00;0.00;;;;;;;;5056907;28;45296;-67
2022/10/24 10:32:21;;;;;;;;;2.00;0.75;;;;;;;;5076352;28;45387;-63
2022/10/24 10:34:54;;;;;;;;;0.00;0.00;;;;;;;;5071992;27;45397;-72
2022/10/24 10:37:27;;;;;;;;;0.50;0.00;;;;;;;;5068542;28;45421;-64
2022/10/24 10:39:52;;;;;;;;;0.00;0.00;;;;;;;;5059108;28;45935;-69
2022/10/24 10:42:32;;;;;;;;;0.50;0.00;;;;;;;;5076666;28;45368;-68
2022/10/24 10:44:57;;;;;;;;;3.00;0.00;;;;;;;;5076471;27;46672;-68
2022/10/24 10:47:41;;;;;;;;;3.00;0.00;;;;;;;;5060125;28;45475;-76
2022/10/24 10:50:35;;;;;;;;;2.00;0.50;;;;;;;;5057266;28;45537;-70
2022/10/24 10:53:20;;;;;;;;;0.00;0.00;;;;;;;;5016709;28;45409;-72
2022/10/24 10:55:48;;;;;;;;;5.00;0.00;;;;;;;;5014525;28;45474;-73
2022/10/24 10:58:20;;;;;;;;;0.00;0.00;;;;;;;;5014597;28;45266;-73
2022/10/24 11:01:05;;;;;;;;;3.00;2.00;;;;;;;;5018831;28;45402;-70
2022/10/24 11:03:37;;;;;;;;;2.00;0.00;;;;;;;;5031334;28;45347;-69
2022/10/24 11:06:11;;;;;;;;;3.50;1.00;;;;;;;;5014304;28;45716;-70
2022/10/24 11:08:43;;;;;;;;;1.00;1.00;;;;;;;;5028262;28;45495;-70
2022/10/24 11:11:15;;;;;;;;;2.25;0.75;;;;;;;;5015964;28;45298;-71
2022/10/24 11:13:58;;;;;;;;;1.25;0.00;;;;;;;;5010010;28;45540;-70
2022/10/24 11:16:26;;;;;;;;;3.00;0.00;;;;;;;;5015161;28;45422;-74
2022/10/24 11:18:52;;;;;;;;;0.00;0.00;;;;;;;;5017659;28;45448;-65
2022/10/24 11:21:20;;;;;;;;;0.00;0.00;;;;;;;;5021127;28;45458;-68
2022/10/24 11:23:52;;;;;;;;;1.00;0.00;;;;;;;;5020509;28;45994;-75
2022/10/24 11:26:35;;;;;;;;;1.00;1.00;;;;;;;;5023218;28;46448;-74
2022/10/24 11:29:17;;;;;;;;;1.00;1.00;;;;;;;;5041015;28;45365;-73
2022/10/24 11:31:47;;;;;;;;;0.00;0.00;;;;;;;;5060282;28;45537;-72
2022/10/24 11:34:16;;;;;;;;;1.00;1.00;;;;;;;;5072273;28;46092;-71
2022/10/24 11:36:48;;;;;;;;;1.00;1.00;;;;;;;;5066370;28;45699;-71
2022/10/24 11:39:14;;;;;;;;;0.00;0.00;;;;;;;;5074119;28;45357;-69
2022/10/24 11:41:39;;;;;;;;;0.00;0.00;;;;;;;;5078474;27;45514;-70
2022/10/24 11:44:24;;;;;;;;;0.00;0.00;;;;;;;;5078130;27;45596;-68
2022/10/24 11:46:54;;;;;;;;;0.25;0.00;;;;;;;;5036401;28;47023;-73
2022/10/24 11:49:22;;;;;;;;;12.00;12.00;;;;;;;;5031666;28;45687;-72
2022/10/24 11:51:54;;;;;;;;;0.00;0.00;;;;;;;;5034660;28;45263;-73
2022/10/24 11:54:25;;;;;;;;;0.00;0.00;;;;;;;;5037069;28;45473;-73
2022/10/24 11:56:53;;;;;;;;;2.25;1.00;;;;;;;;5036298;28;46502;-68
2022/10/24 11:59:23;;;;;;;;;1.00;1.00;;;;;;;;5034493;28;45552;-71
2022/10/24 12:01:53;;;;;;;;;0.00;0.00;;;;;;;;5033983;28;45479;-74
2022/10/24 12:04:22;;;;;;;;;1.75;1.00;;;;;;;;5037236;28;45449;-74
2022/10/24 12:07:02;;;;;;;;;1.50;1.00;;;;;;;;5035646;28;46615;-71
2022/10/24 12:09:30;;;;;;;;;0.50;0.00;;;;;;;;5029376;28;45581;-71
2022/10/24 12:11:55;;;;;;;;;0.50;0.50;;;;;;;;5017130;28;45405;-70
2022/10/24 12:14:23;;;;;;;;;8.25;3.75;;;;;;;;5017889;28;45505;-74
2022/10/24 12:16:56;;;;;;;;;2.00;0.00;;;;;;;;5016994;28;46399;-72
2022/10/24 12:19:21;;;;;;;;;0.00;0.00;;;;;;;;5016990;28;45493;-78
2022/10/24 12:21:57;;;;;;;;;0.75;0.75;;;;;;;;5012276;28;45472;-81
2022/10/24 12:24:23;;;;;;;;;2.50;0.25;;;;;;;;5060076;28;45422;-78
2022/10/24 12:26:59;;;;;;;;;1.00;1.00;;;;;;;;5067701;27;45602;-71
2022/10/24 12:29:25;;;;;;;;;0.00;0.00;;;;;;;;5079358;27;45265;-74
2022/10/24 12:31:51;;;;;;;;;1.50;1.00;;;;;;;;5078892;28;45423;-73
2022/10/24 12:34:21;;;;;;;;;1.25;0.00;;;;;;;;5079732;28;45288;-77
2022/10/24 12:37:04;;;;;;;;;0.50;0.00;;;;;;;;5079067;28;46559;-71
2022/10/24 12:39:49;;;;;;;;;0.00;0.00;;;;;;;;5060436;28;45508;-70
2022/10/24 12:42:16;;;;;;;;;1.75;0.00;;;;;;;;5063874;27;45851;-79
2022/10/24 12:44:42;;;;;;;;;1.00;0.00;;;;;;;;5077972;28;45600;-65
2022/10/24 12:47:27;;;;;;;;;1.75;1.00;;;;;;;;5071888;28;46342;-77
2022/10/24 12:49:52;;;;;;;;;0.75;0.75;;;;;;;;5064774;28;45408;-76
2022/10/24 12:52:29;;;;;;;;;0.50;0.50;;;;;;;;5061790;27;45306;-72
2022/10/24 12:54:55;;;;;;;;;3.00;1.00;;;;;;;;5058803;28;45606;-75
2022/10/24 12:57:22;;;;;;;;;0.00;0.00;;;;;;;;5058517;28;45384;-75
2022/10/24 12:59:47;;;;;;;;;1.00;1.00;;;;;;;;5058519;28;46338;-74
2022/10/24 13:02:27;;;;;;;;;0.50;0.50;;;;;;;;5058516;28;45443;-76
2022/10/24 13:04:56;;;;;;;;;1.00;1.00;;;;;;;;5058481;28;45381;-76
2022/10/24 13:07:41;;;;;;;;;0.75;0.75;;;;;;;;5058146;28;45308;-74
2022/10/24 13:10:06;;;;;;;;;0.00;0.00;;;;;;;;5050566;28;45459;-74
2022/10/24 13:12:40;;;;;;;;;2.00;0.00;;;;;;;;5058656;28;45325;-75
2022/10/24 13:15:08;;;;;;;;;0.50;0.25;;;;;;;;5058359;28;45384;-75
2022/10/24 13:17:49;;;;;;;;;0.50;0.50;;;;;;;;5064126;28;46148;-75
2022/10/24 13:20:20;;;;;;;;;2.00;0.00;;;;;;;;5078572;27;45251;-75
2022/10/24 13:22:47;;;;;;;;;1.00;0.75;;;;;;;;5078864;28;45311;-74
2022/10/24 13:25:34;;;;;;;;;3.00;1.00;;;;;;;;5078529;27;45422;-73
2022/10/24 13:28:18;;;;;;;;;0.00;0.00;;;;;;;;5077955;28;46813;-75
2022/10/24 13:30:44;;;;;;;;;2.00;1.00;;;;;;;;5058205;28;45432;-75
2022/10/24 13:33:27;;;;;;;;;3.25;0.00;;;;;;;;5058475;28;45241;-73
2022/10/24 13:35:53;;;;;;;;;1.50;1.50;;;;;;;;5058721;28;45310;-81
2022/10/24 13:38:20;;;;;;;;;2.75;1.00;;;;;;;;5058066;28;45510;-78
2022/10/24 13:40:45;;;;;;;;;4.00;1.00;;;;;;;;5057922;28;45397;-79
2022/10/24 13:43:15;;;;;;;;;2.75;1.50;;;;;;;;5058386;28;45485;-77
2022/10/24 13:45:50;;;;;;;;;0.00;0.00;;;;;;;;5058507;28;45384;-79
2022/10/24 13:48:17;;;;;;;;;1.25;0.00;;;;;;;;5057979;28;46400;-81
2022/10/24 13:51:06;;;;;;;;;1.00;0.25;;;;;;;;5058075;28;45384;-73
2022/10/24 13:53:34;;;;;;;;;0.25;0.25;;;;;;;;5048843;28;45434;-80
2022/10/24 13:56:02;;;;;;;;;2.00;1.00;;;;;;;;5073737;28;45296;-78
2022/10/24 13:58:36;;;;;;;;;0.00;0.00;;;;;;;;5078115;28;46649;-75
2022/10/24 14:01:04;;;;;;;;;3.00;2.00;;;;;;;;5078255;28;45438;-76
2022/10/24 14:03:30;;;;;;;;;3.50;0.75;;;;;;;;5078503;28;45179;-74
2022/10/24 14:05:57;;;;;;;;;4.33;4.33;;;;;;;;5077526;27;45907;-73
2022/10/24 14:08:27;;;;;;;;;0.25;0.25;;;;;;;;5059072;28;45439;-80
2022/10/24 14:10:54;;;;;;;;;4.00;1.00;;;;;;;;5059143;27;45419;-73
2022/10/24 14:13:20;;;;;;;;;1.00;1.00;;;;;;;;5077294;28;45503;-74
2022/10/24 14:15:50;;;;;;;;;1.75;1.00;;;;;;;;5077315;28;45537;-74
2022/10/24 14:18:15;;;;;;;;;0.00;0.00;;;;;;;;5077405;28;47031;-72
2022/10/24 14:20:40;;;;;;;;;3.00;2.00;;;;;;;;5073223;28;45294;-79
2022/10/24 14:23:21;;;;;;;;;7.25;3.25;;;;;;;;5075719;28;45380;-79
2022/10/24 14:25:52;;;;;;;;;1.00;1.00;;;;;;;;5077075;28;45372;-75
2022/10/24 14:28:20;;;;;;;;;1.00;1.00;;;;;;;;5076859;28;46381;-77
2022/10/24 14:30:56;;;;;;;;;0.00;0.00;;;;;;;;5076997;28;45428;-75
2022/10/24 14:33:26;;;;;;;;;0.00;0.00;;;;;;;;5076967;28;45329;-70
2022/10/24 14:35:52;;;;;;;;;3.25;1.00;;;;;;;;5076972;28;45492;-72
2022/10/24 14:38:18;;;;;;;;;1.75;1.00;;;;;;;;5076673;28;46459;-73
2022/10/24 14:40:45;;;;;;;;;2.00;0.00;;;;;;;;5076607;27;45332;-73
2022/10/24 14:43:14;;;;;;;;;2.50;0.25;;;;;;;;5076986;28;45383;-71
2022/10/24 14:45:39;;;;;;;;;4.50;1.00;;;;;;;;5077073;27;45471;-71
2022/10/24 14:48:15;;;;;;;;;3.75;1.00;;;;;;;;5076647;28;45388;-72
2022/10/24 14:50:42;;;;;;;;;0.00;0.00;;;;;;;;5076606;28;45377;-74